Time;durP1;ratioP1;P1;durP2;ratioP2;P2;SDS_P1;SDS_P2;PMS_P1;PMS_P2;Temp;Humidity;BMP_temperature;BMP_pressure;BME280_temperature;BME280_humidity;BME280_pressure;Samples;Min_cycle;Max_cycle;Signal;HPM_P1;HPM_P2
2021/07/04 00:02:15;;;;;;;16.65;12.43;;;;;;;19.20;74.67;100098.56;5085876;28;20035;-70
2021/07/04 00:04:40;;;;;;;14.48;12.38;;;;;;;19.16;74.55;100097.84;5086007;28;20472;-70
2021/07/04 00:07:06;;;;;;;17.20;11.55;;;;;;;19.15;74.62;100104.00;5084329;28;20165;-69
2021/07/04 00:09:31;;;;;;;16.52;11.57;;;;;;;19.15;74.71;100097.91;5084243;28;20024;-70
2021/07/04 00:11:57;;;;;;;15.10;10.80;;;;;;;19.13;75.22;100091.88;5086050;28;20055;-70
2021/07/04 00:14:24;;;;;;;13.38;11.93;;;;;;;19.07;75.45;100093.84;5084548;28;20036;-70
2021/07/04 00:16:50;;;;;;;13.57;11.65;;;;;;;19.06;75.68;100102.66;5085812;28;20028;-69
2021/07/04 00:19:16;;;;;;;14.85;12.00;;;;;;;18.99;76.28;100088.13;5085511;28;20013;-70
2021/07/04 00:21:41;;;;;;;13.32;11.70;;;;;;;19.03;76.16;100105.44;5085647;28;20261;-70
2021/07/04 00:24:08;;;;;;;18.00;12.77;;;;;;;18.98;76.49;100099.56;5085833;28;20024;-70
2021/07/04 00:26:34;;;;;;;17.20;13.52;;;;;;;18.87;76.63;100092.19;5085814;28;20032;-70
2021/07/04 00:29:01;;;;;;;16.00;12.95;;;;;;;18.90;76.88;100101.69;5085628;28;20125;-69
2021/07/04 00:31:26;;;;;;;18.38;12.45;;;;;;;18.87;76.87;100101.84;5085619;28;20032;-70
2021/07/04 00:33:52;;;;;;;16.88;13.27;;;;;;;18.87;76.89;100102.72;5085524;28;20036;-70
2021/07/04 00:36:17;;;;;;;17.77;12.93;;;;;;;18.81;77.42;100106.50;5085311;28;20017;-69
2021/07/04 00:38:43;;;;;;;16.63;12.35;;;;;;;18.77;77.46;100102.28;5083855;28;20024;-70
2021/07/04 00:41:09;;;;;;;15.35;12.15;;;;;;;18.83;77.76;100109.88;5085410;28;20109;-70
2021/07/04 00:43:34;;;;;;;13.70;12.30;;;;;;;18.81;77.93;100119.66;5083904;28;20091;-70
2021/07/04 00:46:00;;;;;;;15.95;12.77;;;;;;;18.75;78.10;100112.06;5085262;28;20028;-68
2021/07/04 00:48:26;;;;;;;16.75;11.82;;;;;;;18.74;78.13;100112.97;5083564;28;20059;-69
2021/07/04 00:50:51;;;;;;;16.33;11.57;;;;;;;18.78;78.40;100114.53;5085174;28;20408;-69
2021/07/04 00:53:17;;;;;;;14.30;11.75;;;;;;;18.74;78.70;100115.59;5083525;28;20024;-70
2021/07/04 00:55:43;;;;;;;13.73;10.48;;;;;;;18.73;79.09;100121.78;5085131;28;20036;-70
2021/07/04 00:58:08;;;;;;;16.10;12.00;;;;;;;18.77;78.75;100118.06;5083528;28;20465;-69
2021/07/04 01:00:37;;;;;;;13.75;11.45;;;;;;;18.73;79.15;100124.41;5085037;28;20512;-69
2021/07/04 01:03:02;;;;;;;12.25;10.38;;;;;;;18.75;79.26;100130.47;5084979;28;20027;-70
2021/07/04 01:05:30;;;;;;;14.48;12.15;;;;;;;18.79;79.12;100126.75;5084889;28;20016;-70
2021/07/04 01:07:57;;;;;;;15.70;11.13;;;;;;;18.80;79.39;100141.59;5084690;28;20080;-70
2021/07/04 01:10:27;;;;;;;15.75;11.05;;;;;;;18.74;79.58;100136.63;5084687;28;20031;-70
2021/07/04 01:12:54;;;;;;;12.68;10.98;;;;;;;18.79;79.45;100139.91;5084965;28;20529;-69
2021/07/04 01:15:21;;;;;;;12.38;9.85;;;;;;;18.77;79.74;100141.75;5084606;28;20032;-69
2021/07/04 01:17:49;;;;;;;16.10;10.45;;;;;;;18.80;79.49;100148.66;5084680;28;20020;-69
2021/07/04 01:20:17;;;;;;;11.93;9.18;;;;;;;18.74;79.63;100151.56;5084494;28;20021;-69
2021/07/04 01:22:52;;;;;;;13.10;10.05;;;;;;;18.81;79.57;100145.09;5084691;28;20392;-70
2021/07/04 01:25:18;;;;;;;12.77;10.07;;;;;;;18.78;79.62;100151.34;5083311;28;20274;-70
2021/07/04 01:27:43;;;;;;;12.23;9.60;;;;;;;18.78;79.97;100158.38;5084416;28;20120;-70
2021/07/04 01:30:10;;;;;;;16.00;10.45;;;;;;;18.77;79.94;100162.78;5084281;28;20496;-69
2021/07/04 01:32:36;;;;;;;14.93;9.98;;;;;;;18.80;79.63;100162.63;5084128;28;20234;-69
2021/07/04 01:35:01;;;;;;;10.90;9.52;;;;;;;18.81;79.69;100163.50;5084367;28;20051;-69
2021/07/04 01:37:27;;;;;;;13.82;10.02;;;;;;;18.79;79.82;100170.59;5084209;28;20024;-70
2021/07/04 01:39:52;;;;;;;12.55;8.77;;;;;;;18.75;80.26;100175.16;5082553;28;20027;-70
2021/07/04 01:42:17;;;;;;;15.48;10.77;;;;;;;18.76;80.06;100176.84;5084115;28;20028;-69
2021/07/04 01:44:43;;;;;;;14.85;11.45;;;;;;;18.74;80.07;100176.06;5084131;28;20029;-69
2021/07/04 01:47:08;;;;;;;11.73;9.77;;;;;;;18.79;79.80;100174.09;5084255;28;20165;-70
2021/07/04 01:49:34;;;;;;;13.80;10.02;;;;;;;18.77;80.10;100180.34;5083146;28;20072;-68
2021/07/04 01:51:59;;;;;;;13.48;10.48;;;;;;;18.78;79.79;100169.75;5084108;28;20057;-70
2021/07/04 01:54:25;;;;;;;13.15;10.32;;;;;;;18.79;79.86;100173.22;5083976;28;20021;-70
2021/07/04 01:56:50;;;;;;;17.85;11.30;;;;;;;18.79;79.78;100174.09;5083818;28;20048;-69
2021/07/04 01:59:16;;;;;;;12.05;10.73;;;;;;;18.79;79.59;100163.56;5083547;28;20028;-69
2021/07/04 02:01:41;;;;;;;15.18;11.52;;;;;;;18.76;79.70;100166.34;5083778;28;20074;-69
2021/07/04 02:04:06;;;;;;;16.02;11.55;;;;;;;18.76;79.70;100173.38;5083660;28;20509;-69
2021/07/04 02:06:32;;;;;;;15.35;11.93;;;;;;;18.80;79.85;100161.81;5083798;28;20100;-69
2021/07/04 02:09:00;;;;;;;17.60;11.65;;;;;;;18.69;80.13;100163.13;5083695;28;20020;-69
2021/07/04 02:11:26;;;;;;;16.25;12.48;;;;;;;18.69;80.03;100159.69;5083581;28;20039;-68
2021/07/04 02:13:51;;;;;;;16.15;12.40;;;;;;;18.79;79.69;100163.56;5083589;28;20375;-68
2021/07/04 02:16:17;;;;;;;13.77;10.55;;;;;;;18.74;79.95;100176.06;5083686;28;20161;-69
2021/07/04 02:18:43;;;;;;;15.30;10.43;;;;;;;18.73;80.15;100174.38;5083533;28;20017;-68
2021/07/04 02:21:08;;;;;;;14.23;10.90;;;;;;;18.72;79.97;100177.94;5084035;28;20021;-68
2021/07/04 02:23:34;;;;;;;12.02;10.52;;;;;;;18.68;80.37;100173.72;5083240;28;20024;-69
2021/07/04 02:26:00;;;;;;;14.10;11.07;;;;;;;18.69;80.32;100178.09;5083838;28;20027;-69
2021/07/04 02:28:28;;;;;;;16.35;10.68;;;;;;;18.66;80.36;100173.81;5083461;28;20021;-69
2021/07/04 02:30:56;;;;;;;15.95;12.07;;;;;;;18.66;80.30;100179.06;5083402;28;20028;-69
2021/07/04 02:33:22;;;;;;;13.60;11.60;;;;;;;18.65;80.45;100187.88;5083616;28;20064;-69
2021/07/04 02:35:53;;;;;;;14.23;11.25;;;;;;;18.63;80.33;100167.81;5083326;28;20107;-68
2021/07/04 02:38:19;;;;;;;15.82;10.35;;;;;;;18.64;80.34;100175.63;5083566;28;20024;-69
2021/07/04 02:40:46;;;;;;;12.82;11.00;;;;;;;18.62;80.28;100169.63;5083143;28;20036;-69
2021/07/04 02:43:13;;;;;;;13.50;10.48;;;;;;;18.67;80.02;100174.66;5082164;28;20024;-69
2021/07/04 02:45:40;;;;;;;13.55;10.75;;;;;;;18.61;80.16;100180.22;5083436;28;20521;-69
2021/07/04 02:48:07;;;;;;;14.35;11.07;;;;;;;18.57;80.39;100182.97;5083227;28;20051;-68
2021/07/04 02:50:32;;;;;;;14.82;11.60;;;;;;;18.56;80.16;100186.50;5081740;28;20016;-68
2021/07/04 02:52:57;;;;;;;14.15;11.25;;;;;;;18.54;80.20;100193.63;5082049;28;20374;-68
2021/07/04 02:55:23;;;;;;;12.65;10.32;;;;;;;18.54;80.13;100192.78;5083431;28;20048;-68
2021/07/04 02:57:50;;;;;;;16.73;10.23;;;;;;;18.51;80.16;100190.28;5083336;28;20034;-68
2021/07/04 03:00:26;;;;;;;16.65;11.13;;;;;;;18.50;80.12;100183.34;5082975;28;20025;-68
2021/07/04 03:02:53;;;;;;;13.38;10.90;;;;;;;18.56;79.78;100193.56;5085969;28;20044;-68
2021/07/04 03:05:19;;;;;;;13.98;10.43;;;;;;;18.59;79.52;100193.41;5085749;28;20020;-68
2021/07/04 03:07:45;;;;;;;12.35;10.30;;;;;;;18.53;79.60;100193.69;5087157;28;20048;-69
2021/07/04 03:10:14;;;;;;;11.43;10.23;;;;;;;18.51;79.75;100196.41;5086940;28;20036;-68
2021/07/04 03:12:40;;;;;;;15.15;11.25;;;;;;;18.48;79.88;100201.78;5087220;28;20069;-70
2021/07/04 03:15:08;;;;;;;12.18;9.70;;;;;;;18.51;79.58;100199.03;5087131;28;20443;-70
2021/07/04 03:17:33;;;;;;;14.77;10.43;;;;;;;18.48;79.99;100196.53;5086923;28;20368;-70
2021/07/04 03:19:59;;;;;;;15.68;11.07;;;;;;;18.58;79.44;100204.84;5086821;28;20024;-69
2021/07/04 03:22:24;;;;;;;12.43;10.80;;;;;;;18.56;79.58;100204.91;5086831;28;20060;-68
2021/07/04 03:24:50;;;;;;;17.70;11.48;;;;;;;18.60;79.73;100215.28;5086884;28;20020;-69
2021/07/04 03:27:15;;;;;;;13.02;11.05;;;;;;;18.58;79.81;100216.22;5086732;28;20031;-69
2021/07/04 03:29:41;;;;;;;13.30;10.55;;;;;;;18.62;79.86;100216.06;5086481;28;20092;-69
2021/07/04 03:32:06;;;;;;;17.38;11.13;;;;;;;18.66;79.58;100222.88;5085081;28;20491;-69
2021/07/04 03:34:32;;;;;;;13.98;11.75;;;;;;;18.66;79.65;100215.00;5086635;28;20358;-69
2021/07/04 03:36:57;;;;;;;15.32;12.15;;;;;;;18.67;79.75;100222.00;5085315;28;20024;-69
2021/07/04 03:39:23;;;;;;;13.82;10.98;;;;;;;18.73;79.31;100228.72;5084985;28;20123;-69
2021/07/04 03:41:48;;;;;;;12.93;11.23;;;;;;;18.74;79.29;100241.81;5087108;28;20059;-67
2021/07/04 03:44:14;;;;;;;15.85;11.20;;;;;;;18.87;78.73;100238.59;5086457;28;20027;-67
2021/07/04 03:46:40;;;;;;;14.57;10.38;;;;;;;18.86;78.69;100236.91;5086289;28;20484;-68
2021/07/04 03:49:05;;;;;;;14.20;11.63;;;;;;;18.90;78.57;100243.72;5086014;28;20170;-67
2021/07/04 03:51:31;;;;;;;13.93;9.88;;;;;;;18.80;79.04;100232.81;5086284;28;20038;-70
2021/07/04 03:53:56;;;;;;;12.23;10.48;;;;;;;18.88;78.59;100240.34;5086403;28;20111;-68
2021/07/04 03:56:21;;;;;;;12.85;9.80;;;;;;;18.94;78.50;100240.06;5085933;28;20027;-68
2021/07/04 03:58:47;;;;;;;14.77;10.50;;;;;;;18.85;78.78;100240.47;5085921;28;20025;-68
2021/07/04 04:01:20;;;;;;;10.38;8.55;;;;;;;18.94;78.51;100259.31;5086027;28;20028;-68
2021/07/04 04:03:49;;;;;;;13.02;9.95;;;;;;;19.03;78.00;100255.41;5085974;28;20468;-69
2021/07/04 04:06:14;;;;;;;10.48;9.30;;;;;;;19.00;78.09;100265.19;5086085;28;20029;-67
2021/07/04 04:08:41;;;;;;;10.82;9.15;;;;;;;19.03;77.67;100260.66;5085872;28;20046;-68
2021/07/04 04:11:07;;;;;;;11.55;8.68;;;;;;;18.99;78.08;100259.09;5086219;28;20023;-68
2021/07/04 04:13:33;;;;;;;11.27;10.00;;;;;;;18.97;78.14;100266.22;5083731;28;20020;-68
2021/07/04 04:15:58;;;;;;;11.82;9.35;;;;;;;19.06;77.93;100264.91;5086056;28;20027;-69
2021/07/04 04:18:24;;;;;;;15.50;10.18;;;;;;;19.04;77.67;100258.91;5085813;28;20033;-68
2021/07/04 04:20:49;;;;;;;12.27;9.88;;;;;;;19.08;77.53;100271.84;5085795;28;20400;-69
2021/07/04 04:23:15;;;;;;;12.18;10.20;;;;;;;19.07;77.67;100271.91;5085697;28;20040;-67
2021/07/04 04:25:40;;;;;;;11.45;9.57;;;;;;;19.06;77.61;100270.19;5084351;28;20024;-69
2021/07/04 04:28:06;;;;;;;12.00;9.38;;;;;;;19.04;77.69;100278.16;5085609;28;20529;-68
2021/07/04 04:30:32;;;;;;;11.70;9.73;;;;;;;19.08;77.35;100279.72;5085430;28;20025;-68
2021/07/04 04:32:57;;;;;;;11.43;8.35;;;;;;;19.12;76.88;100277.81;5085792;28;20016;-68
2021/07/04 04:35:23;;;;;;;11.95;7.03;;;;;;;19.22;75.95;100269.53;5085539;28;20084;-68
2021/07/04 04:37:48;;;;;;;11.13;9.02;;;;;;;19.13;76.12;100278.69;5085583;28;20028;-68
2021/07/04 04:40:14;;;;;;;11.77;8.73;;;;;;;19.15;75.95;100276.84;5085302;28;20020;-68
2021/07/04 04:42:39;;;;;;;9.45;7.93;;;;;;;19.23;75.41;100281.75;5085281;28;20017;-69
2021/07/04 04:45:08;;;;;;;11.30;7.38;;;;;;;19.16;75.46;100276.78;5085297;28;20024;-68
2021/07/04 04:47:33;;;;;;;9.45;8.45;;;;;;;19.18;75.68;100284.59;5085342;28;20048;-68
2021/07/04 04:49:58;;;;;;;8.70;7.68;;;;;;;19.27;74.46;100283.28;5085228;28;20047;-68
2021/07/04 04:52:24;;;;;;;11.20;6.75;;;;;;;19.23;74.55;100285.22;5085266;28;20084;-69
2021/07/04 04:54:49;;;;;;;8.18;6.72;;;;;;;19.28;74.09;100288.47;5085050;28;20039;-69
2021/07/04 04:57:14;;;;;;;8.98;7.03;;;;;;;19.29;73.78;100302.50;5085161;28;20036;-69
2021/07/04 04:59:40;;;;;;;14.50;6.60;;;;;;;19.22;74.17;100287.94;5084904;28;20508;-69
2021/07/04 05:02:05;;;;;;;8.00;6.85;;;;;;;19.22;74.46;100290.56;5085203;28;20256;-68
2021/07/04 05:04:32;;;;;;;7.22;5.65;;;;;;;19.30;73.71;100293.66;5084787;28;20306;-68
2021/07/04 05:06:58;;;;;;;7.68;6.88;;;;;;;19.27;73.75;100299.94;5085021;28;20127;-68
2021/07/04 05:09:24;;;;;;;6.32;5.68;;;;;;;19.33;72.96;100296.16;5084648;28;20020;-69
2021/07/04 05:11:50;;;;;;;7.32;6.18;;;;;;;19.42;72.20;100284.34;5083333;28;20032;-70
2021/07/04 05:14:16;;;;;;;6.78;5.95;;;;;;;19.39;71.73;100293.22;5083304;28;20025;-68
2021/07/04 05:16:42;;;;;;;7.15;5.60;;;;;;;19.30;71.94;100277.88;5084538;28;20035;-68
2021/07/04 05:19:11;;;;;;;6.72;4.03;;;;;;;19.39;70.96;100282.69;5084614;28;20048;-70
2021/07/04 05:21:37;;;;;;;6.75;5.57;;;;;;;19.28;71.06;100280.59;5083333;28;20461;-69
2021/07/04 05:24:03;;;;;;;6.22;4.63;;;;;;;19.25;71.40;100285.16;5082877;28;20048;-69
2021/07/04 05:26:29;;;;;;;7.50;4.85;;;;;;;19.27;70.94;100278.88;5083797;28;20369;-69
2021/07/04 05:28:55;;;;;;;7.70;5.85;;;;;;;19.24;70.98;100281.66;5084303;28;20072;-70
2021/07/04 05:31:21;;;;;;;5.95;4.97;;;;;;;19.22;70.93;100277.41;5084236;28;20024;-69
2021/07/04 05:33:46;;;;;;;6.95;5.93;;;;;;;19.21;70.93;100287.06;5084621;28;20028;-69
2021/07/04 05:36:11;;;;;;;5.85;5.25;;;;;;;19.24;70.57;100278.16;5082921;28;20016;-69
2021/07/04 05:38:38;;;;;;;6.25;5.65;;;;;;;19.29;70.54;100282.31;5083942;28;20021;-68
2021/07/04 05:41:04;;;;;;;7.05;5.25;;;;;;;19.30;70.53;100283.16;5084183;28;20117;-68
2021/07/04 05:43:29;;;;;;;5.82;5.15;;;;;;;19.38;70.17;100272.25;5084175;28;20115;-69
2021/07/04 05:45:58;;;;;;;5.10;4.60;;;;;;;19.42;70.08;100273.81;5082911;28;20017;-68
2021/07/04 05:48:23;;;;;;;6.75;4.95;;;;;;;19.50;69.83;100263.78;5082652;28;20044;-69
2021/07/04 05:50:49;;;;;;;6.40;4.78;;;;;;;19.61;68.85;100259.75;5083910;28;20028;-68
2021/07/04 05:53:15;;;;;;;6.18;4.88;;;;;;;19.62;68.75;100264.09;5083961;28;20086;-69
2021/07/04 05:55:40;;;;;;;5.68;4.80;;;;;;;19.66;68.60;100263.03;5084060;28;20021;-69
2021/07/04 05:58:06;;;;;;;5.03;4.18;;;;;;;19.66;68.94;100265.66;5083805;28;20035;-69
2021/07/04 06:00:35;;;;;;;6.47;5.20;;;;;;;19.74;68.95;100258.25;5082550;28;20092;-69
2021/07/04 06:03:01;;;;;;;7.13;4.90;;;;;;;19.82;68.57;100257.88;5083725;28;20032;-69
2021/07/04 06:05:26;;;;;;;9.77;5.00;;;;;;;19.92;68.32;100251.19;5084078;28;20020;-69
2021/07/04 06:07:52;;;;;;;5.47;4.22;;;;;;;20.04;67.52;100251.53;5083934;28;20017;-69
2021/07/04 06:10:17;;;;;;;7.05;4.53;;;;;;;20.15;67.40;100246.56;5083860;28;20021;-70
2021/07/04 06:12:42;;;;;;;5.60;4.95;;;;;;;20.21;66.92;100249.84;5083666;28;20035;-67
2021/07/04 06:15:09;;;;;;;6.82;5.13;;;;;;;20.27;66.48;100249.50;5082511;28;20357;-70
2021/07/04 06:17:34;;;;;;;5.55;4.63;;;;;;;20.30;65.97;100252.00;5083688;28;20024;-69
2021/07/04 06:20:00;;;;;;;5.88;4.75;;;;;;;20.28;65.96;100249.44;5083546;28;20030;-68
2021/07/04 06:22:25;;;;;;;7.95;5.40;;;;;;;20.25;66.47;100259.28;5083544;28;20107;-68
2021/07/04 06:24:51;;;;;;;7.00;4.90;;;;;;;20.18;66.78;100254.31;5083499;28;20025;-69
2021/07/04 06:27:16;;;;;;;6.28;5.28;;;;;;;20.23;67.07;100264.63;5082305;28;20016;-69
2021/07/04 06:29:41;;;;;;;7.35;6.00;;;;;;;20.22;67.07;100265.56;5083519;28;20013;-69
2021/07/04 06:32:07;;;;;;;6.78;5.13;;;;;;;20.18;66.89;100272.78;5083786;28;20030;-69
2021/07/04 06:34:32;;;;;;;6.10;5.47;;;;;;;20.18;67.03;100267.50;5083761;28;20029;-69
2021/07/04 06:36:58;;;;;;;7.10;5.45;;;;;;;20.17;67.62;100273.72;5081688;28;20082;-68
2021/07/04 06:39:23;;;;;;;8.02;6.30;;;;;;;20.24;67.79;100274.22;5083227;28;20036;-69
2021/07/04 06:41:51;;;;;;;7.82;5.88;;;;;;;20.36;67.55;100278.03;5083329;28;20032;-69
2021/07/04 06:44:17;;;;;;;6.43;5.43;;;;;;;20.46;66.99;100270.50;5083417;28;20025;-67
2021/07/04 06:46:42;;;;;;;6.70;5.88;;;;;;;20.47;67.30;100273.97;5083435;28;20024;-70
2021/07/04 06:49:08;;;;;;;6.63;5.75;;;;;;;20.65;67.36;100285.34;5082995;28;20040;-69
2021/07/04 06:51:33;;;;;;;7.35;5.82;;;;;;;20.81;66.23;100275.66;5081828;28;20020;-69
2021/07/04 06:53:58;;;;;;;7.90;6.22;;;;;;;21.14;66.01;100283.66;5083425;28;20444;-70
2021/07/04 06:56:24;;;;;;;6.45;4.93;;;;;;;21.71;64.74;100278.75;5083180;28;20025;-69
2021/07/04 06:58:49;;;;;;;6.78;5.47;;;;;;;22.11;62.61;100255.31;5082996;28;20352;-69
2021/07/04 07:01:14;;;;;;;7.03;4.95;;;;;;;22.27;62.13;100272.88;5083162;28;20034;-69
2021/07/04 07:03:40;;;;;;;7.45;5.57;;;;;;;22.25;60.94;100270.31;5083310;28;20016;-69
2021/07/04 07:06:05;;;;;;;7.45;5.50;;;;;;;22.08;61.71;100275.81;5083487;28;20025;-70
2021/07/04 07:08:31;;;;;;;7.18;5.57;;;;;;;21.88;61.32;100262.81;5083250;28;20464;-69
2021/07/04 07:10:56;;;;;;;6.03;5.43;;;;;;;21.85;62.42;100273.56;5082917;28;20097;-69
2021/07/04 07:13:22;;;;;;;6.25;5.30;;;;;;;21.81;63.34;100285.22;5083076;28;20048;-69
2021/07/04 07:15:47;;;;;;;5.93;5.10;;;;;;;22.02;62.68;100272.56;5083176;28;20487;-69
2021/07/04 07:18:15;;;;;;;8.77;5.70;;;;;;;22.17;62.52;100283.19;5081832;28;20021;-69
2021/07/04 07:20:41;;;;;;;5.95;4.82;;;;;;;22.64;61.17;100277.75;5082985;28;20142;-69
2021/07/04 07:23:07;;;;;;;6.10;4.40;;;;;;;23.19;61.63;100280.56;5082989;28;20063;-63
2021/07/04 07:25:32;;;;;;;5.47;4.82;;;;;;;24.00;59.46;100269.16;5083038;28;20032;-64
2021/07/04 07:27:58;;;;;;;8.90;5.40;;;;;;;24.58;57.89;100283.88;5083033;28;20020;-63
2021/07/04 07:30:24;;;;;;;5.97;4.88;;;;;;;24.74;56.67;100288.94;5082844;28;20024;-64
2021/07/04 07:32:50;;;;;;;6.70;4.70;;;;;;;24.88;55.90;100283.53;5082529;28;20043;-63
2021/07/04 07:35:15;;;;;;;5.38;4.88;;;;;;;24.96;55.13;100266.22;5082963;28;20020;-63
2021/07/04 07:37:41;;;;;;;10.70;5.80;;;;;;;24.74;55.03;100281.84;5082739;28;20047;-66
2021/07/04 07:40:08;;;;;;;6.88;5.43;;;;;;;24.63;55.93;100271.97;5082737;28;20497;-72
2021/07/04 07:42:40;;;;;;;5.32;4.82;;;;;;;24.94;54.94;100268.97;5082974;28;20028;-73
2021/07/04 07:47:52;;;;;;;6.47;5.32;;;;;;;26.16;51.13;100270.75;5082122;28;20029;-67
2021/07/04 07:50:18;;;;;;;5.28;4.25;;;;;;;26.23;50.57;100271.13;5086277;28;20577;-61
2021/07/04 07:52:44;;;;;;;7.93;5.00;;;;;;;26.58;50.67;100267.53;5086467;28;20028;-65
2021/07/04 07:55:10;;;;;;;6.25;4.80;;;;;;;27.05;49.44;100269.22;5086305;28;20025;-66
2021/07/04 07:57:35;;;;;;;5.90;4.75;;;;;;;27.30;47.83;100272.53;5086284;28;20031;-69
2021/07/04 08:00:00;;;;;;;5.57;4.65;;;;;;;27.20;47.55;100266.28;5086316;28;20020;-69
2021/07/04 08:02:26;;;;;;;5.63;4.40;;;;;;;27.24;47.97;100269.56;5086371;28;20052;-66
2021/07/04 08:04:51;;;;;;;6.65;5.13;;;;;;;27.03;46.97;100265.00;5086196;28;20451;-68
2021/07/04 08:07:17;;;;;;;5.57;4.95;;;;;;;26.83;47.26;100272.72;5084777;28;20572;-66
2021/07/04 08:09:42;;;;;;;5.47;4.60;;;;;;;26.70;47.76;100267.53;5085905;28;20026;-66
2021/07/04 08:12:16;;;;;;;5.57;4.28;;;;;;;26.72;48.24;100266.47;5086061;28;20031;-73
2021/07/04 08:14:42;;;;;;;5.00;4.50;;;;;;;27.16;47.37;100272.81;5086018;28;20054;-68
2021/07/04 08:17:07;;;;;;;5.60;4.72;;;;;;;27.83;45.33;100264.72;5086078;28;20028;-68
2021/07/04 08:19:33;;;;;;;5.05;4.55;;;;;;;27.89;44.48;100269.56;5085442;28;20028;-67
2021/07/04 08:21:58;;;;;;;4.90;4.40;;;;;;;27.71;45.53;100261.28;5085605;28;20314;-65
2021/07/04 08:24:24;;;;;;;4.50;4.10;;;;;;;27.91;44.53;100256.91;5085670;28;20032;-66
2021/07/04 08:26:49;;;;;;;5.40;4.82;;;;;;;27.85;44.77;100252.09;5085597;28;20031;-67
2021/07/04 08:29:14;;;;;;;5.20;4.18;;;;;;;28.06;43.81;100260.13;5085250;28;20020;-68
2021/07/04 08:31:40;;;;;;;4.60;4.18;;;;;;;27.69;44.58;100263.22;5085770;28;20020;-65
2021/07/04 08:34:05;;;;;;;4.38;3.97;;;;;;;27.30;45.55;100259.22;5085398;28;20284;-66
2021/07/04 08:36:32;;;;;;;4.45;3.90;;;;;;;26.94;45.73;100255.88;5084182;28;20413;-68
2021/07/04 08:38:58;;;;;;;4.43;3.88;;;;;;;26.66;45.69;100255.44;5085117;28;20025;-68
2021/07/04 08:41:23;;;;;;;4.93;4.35;;;;;;;26.31;47.03;100265.22;5085423;28;20023;-65
2021/07/04 08:43:49;;;;;;;4.95;4.45;;;;;;;26.21;48.02;100257.94;5085075;28;20028;-67
2021/07/04 08:46:14;;;;;;;4.95;4.45;;;;;;;26.90;47.81;100254.44;5084760;28;20032;-66
2021/07/04 08:48:41;;;;;;;4.53;3.95;;;;;;;27.74;45.27;100261.03;5083443;28;20051;-65
2021/07/04 08:51:08;;;;;;;4.88;4.35;;;;;;;28.02;44.19;100265.84;5085375;28;20039;-65
2021/07/04 08:53:34;;;;;;;4.65;4.25;;;;;;;27.66;44.15;100253.63;5085046;28;20722;-66
2021/07/04 08:56:00;;;;;;;5.18;3.80;;;;;;;27.74;44.33;100249.50;5085333;28;20332;-67
2021/07/04 08:58:26;;;;;;;5.82;3.72;;;;;;;27.80;43.16;100249.84;5084872;28;20043;-67
2021/07/04 09:01:17;;;;;;;4.07;3.67;;;;;;;27.47;43.85;100241.00;5084826;28;20020;-67
2021/07/04 09:03:51;;;;;;;4.50;3.80;;;;;;;27.19;44.11;100249.44;5084964;28;20016;-66
2021/07/04 09:06:43;;;;;;;6.70;3.92;;;;;;;26.79;44.50;100244.66;5084439;28;20485;-68
2021/07/04 09:09:21;;;;;;;4.72;3.63;;;;;;;26.36;44.93;100239.09;5084717;28;20024;-68
2021/07/04 09:12:10;;;;;;;4.80;4.05;;;;;;;26.13;46.26;100244.38;5084659;28;20085;-68
2021/07/04 09:14:47;;;;;;;5.90;4.20;;;;;;;26.03;46.76;100241.59;5084768;28;20076;-67
2021/07/04 09:17:15;;;;;;;5.25;4.60;;;;;;;25.83;47.22;100237.78;5084311;28;20028;-69
2021/07/04 09:19:53;;;;;;;5.00;4.45;;;;;;;25.41;48.48;100244.38;5084680;28;20029;-66
2021/07/04 09:22:28;;;;;;;5.47;4.93;;;;;;;25.09;49.30;100242.28;5084409;28;20026;-68
2021/07/04 09:24:54;;;;;;;5.40;4.90;;;;;;;24.79;50.48;100240.84;5084579;28;20503;-68
2021/07/04 09:27:19;;;;;;;5.47;4.15;;;;;;;24.47;51.06;100245.66;5084326;28;20024;-68
2021/07/04 09:29:52;;;;;;;5.22;4.72;;;;;;;24.25;51.95;100249.81;5084197;28;20017;-69
2021/07/04 09:32:17;;;;;;;5.82;4.07;;;;;;;24.12;52.21;100251.59;5084350;28;20111;-67
2021/07/04 09:35:03;;;;;;;5.53;4.53;;;;;;;23.86;52.97;100246.25;5084147;28;20488;-69
2021/07/04 09:37:38;;;;;;;5.72;4.68;;;;;;;23.78;53.18;100249.41;5084214;28;20393;-70
2021/07/04 09:40:13;;;;;;;5.57;4.57;;;;;;;23.81;53.48;100248.34;5083046;28;20392;-68
2021/07/04 09:42:57;;;;;;;5.63;4.65;;;;;;;23.85;53.55;100258.66;5082743;28;20031;-68
2021/07/04 09:45:25;;;;;;;7.32;4.78;;;;;;;23.92;53.86;100255.56;5083881;28;20155;-67
2021/07/04 09:47:58;;;;;;;7.22;5.57;;;;;;;23.94;54.61;100245.72;5083771;28;20016;-67
2021/07/04 09:50:24;;;;;;;8.73;7.32;;;;;;;24.09;55.22;100249.16;5083902;28;20025;-68
2021/07/04 09:52:58;;;;;;;10.48;8.25;;;;;;;24.14;55.32;100253.16;5082593;28;20032;-66
2021/07/04 09:55:24;;;;;;;11.23;9.73;;;;;;;23.99;55.97;100260.34;5083989;28;20432;-67
2021/07/04 09:57:57;;;;;;;17.42;13.18;;;;;;;23.88;56.64;100261.09;5083883;28;20081;-67
2021/07/04 10:00:28;;;;;;;13.13;10.98;;;;;;;23.75;57.22;100250.44;5083911;28;20178;-67
2021/07/04 10:03:36;;;;;;;19.03;11.73;;;;;;;23.77;57.21;100263.63;5083621;28;20016;-65
2021/07/04 10:06:03;;;;;;;11.95;8.82;;;;;;;23.73;57.96;100251.53;5021184;28;20125;-67
2021/07/04 10:08:34;;;;;;;13.48;9.90;;;;;;;23.71;58.21;100251.63;5004889;28;20046;-67
2021/07/04 10:11:10;;;;;;;10.85;9.15;;;;;;;23.65;58.85;100254.69;5020753;28;20103;-67
2021/07/04 10:13:40;;;;;;;11.35;9.75;;;;;;;23.61;59.19;100253.19;5004828;28;20194;-69
2021/07/04 10:16:07;;;;;;;11.90;10.13;;;;;;;23.57;59.70;100254.34;5021216;28;20036;-69
2021/07/04 10:18:35;;;;;;;12.00;9.07;;;;;;;23.52;60.10;100254.63;5021205;28;20033;-69
2021/07/04 10:21:00;;;;;;;12.30;10.05;;;;;;;23.58;60.00;100250.75;5004521;28;20410;-69
2021/07/04 10:23:27;;;;;;;11.50;9.32;;;;;;;23.75;60.01;100255.75;5020909;28;20030;-68
2021/07/04 10:25:56;;;;;;;14.75;10.35;;;;;;;23.86;59.77;100257.72;5020870;28;20030;-68
2021/07/04 10:28:34;;;;;;;15.23;10.60;;;;;;;23.82;59.76;100263.31;5021049;28;20037;-68
2021/07/04 10:31:03;;;;;;;13.63;10.52;;;;;;;23.59;61.18;100265.69;5021057;28;20049;-69
2021/07/04 10:33:34;;;;;;;17.88;11.27;;;;;;;23.29;61.89;100259.63;5020794;28;20061;-70
2021/07/04 10:36:13;;;;;;;13.40;10.52;;;;;;;23.11;62.11;100257.22;5033251;28;20481;-69
2021/07/04 10:38:40;;;;;;;15.65;11.43;;;;;;;22.98;62.58;100265.09;5083520;28;20025;-68
2021/07/04 10:41:16;;;;;;;14.43;11.60;;;;;;;22.75;63.90;100277.94;5083308;28;20134;-68
2021/07/04 10:43:57;;;;;;;15.15;12.73;;;;;;;22.46;65.02;100288.50;5083519;28;20430;-69
2021/07/04 10:46:44;;;;;;;15.65;12.07;;;;;;;22.16;65.80;100282.31;5083309;28;20024;-69
2021/07/04 10:49:21;;;;;;;15.98;12.20;;;;;;;21.86;67.16;100274.41;5081622;28;20036;-69
2021/07/04 10:52:03;;;;;;;17.33;12.95;;;;;;;21.60;68.45;100271.47;5083212;28;20052;-68
2021/07/04 10:54:43;;;;;;;20.35;13.43;;;;;;;21.20;69.68;100280.66;5083095;28;20476;-68
2021/07/04 10:57:35;;;;;;;19.73;12.50;;;;;;;20.74;70.92;100271.66;5083281;28;20435;-67
2021/07/04 11:03:01;;;;;;;15.27;11.25;;;;;;;20.13;73.58;100279.19;5082871;28;20036;-67
2021/07/04 11:05:40;;;;;;;11.52;7.97;;;;;;;19.84;73.97;100270.97;5080122;28;20037;-67
2021/07/04 11:08:27;;;;;;;9.85;7.72;;;;;;;19.62;74.87;100277.25;5083004;28;20019;-68
2021/07/04 11:11:04;;;;;;;8.68;6.57;;;;;;;19.53;74.67;100282.06;5083167;28;20040;-68
2021/07/04 11:13:42;;;;;;;7.43;5.72;;;;;;;19.43;74.74;100283.41;5083328;28;20055;-69
2021/07/04 11:16:11;;;;;;;8.95;6.00;;;;;;;19.33;75.34;100272.47;5083305;28;20024;-70
2021/07/04 11:18:42;;;;;;;8.27;6.13;;;;;;;19.25;76.29;100262.31;5082611;28;20025;-70
2021/07/04 11:21:09;;;;;;;8.27;5.63;;;;;;;19.31;76.06;100277.81;5081508;28;20047;-70
2021/07/04 11:23:37;;;;;;;4.75;4.00;;;;;;;19.33;76.33;100267.22;5084301;28;20032;-69
2021/07/04 11:26:09;;;;;;;5.13;3.90;;;;;;;19.39;76.58;100263.44;5086691;28;20028;-68